createdAt,value
2019-05-30T00:01:27.650Z,2.00
2019-05-30T00:04:17.914Z,2.20
2019-05-30T00:07:11.013Z,2.00
2019-05-30T00:10:00.579Z,2.20
2019-05-30T00:12:50.865Z,2.30
2019-05-30T00:15:41.102Z,2.43
2019-05-30T00:18:31.313Z,2.60
2019-05-30T00:21:21.557Z,2.43
2019-05-30T00:24:12.075Z,1.97
2019-05-30T00:27:02.564Z,2.40
2019-05-30T00:29:52.925Z,2.30
2019-05-30T00:32:43.293Z,2.07
2019-05-30T00:35:33.524Z,2.00
2019-05-30T00:38:23.840Z,2.00
2019-05-30T00:41:14.069Z,1.90
2019-05-30T00:44:04.414Z,2.37
2019-05-30T00:46:56.021Z,2.20
2019-05-30T00:49:46.476Z,2.27
2019-05-30T00:52:36.821Z,2.20
2019-05-30T00:55:27.098Z,2.53
2019-05-30T00:58:17.567Z,2.80
2019-05-30T01:01:07.656Z,2.63
2019-05-30T01:03:58.981Z,2.77
2019-05-30T01:06:49.143Z,3.20
2019-05-30T01:09:39.464Z,3.30
2019-05-30T01:12:29.627Z,3.23
2019-05-30T01:15:19.961Z,3.37
2019-05-30T01:18:10.182Z,4.00
2019-05-30T01:21:01.322Z,3.87
2019-05-30T01:23:51.321Z,3.93
2019-05-30T01:26:41.345Z,3.40
2019-05-30T01:29:31.365Z,3.43
2019-05-30T01:32:31.152Z,3.57
2019-05-30T01:35:21.375Z,3.90
2019-05-30T01:38:11.455Z,3.57
2019-05-30T01:41:02.352Z,3.40
2019-05-30T01:43:52.803Z,2.80
2019-05-30T01:46:43.006Z,2.90
2019-05-30T01:49:33.108Z,2.83
2019-05-30T01:52:23.646Z,2.77
2019-05-30T01:55:14.156Z,2.53
2019-05-30T01:58:05.069Z,2.30
2019-05-30T02:00:55.142Z,2.67
2019-05-30T02:03:45.188Z,2.40
2019-05-30T02:06:38.065Z,2.50
2019-05-30T02:09:27.411Z,2.00
2019-05-30T02:12:17.727Z,2.03
2019-05-30T02:15:10.014Z,2.17
2019-05-30T02:18:01.476Z,2.33
2019-05-30T02:20:51.501Z,1.80
2019-05-30T02:23:41.811Z,1.80
2019-05-30T02:26:32.073Z,1.77
2019-05-30T02:29:22.534Z,2.00
2019-05-30T02:32:13.018Z,2.00
2019-05-30T02:35:04.803Z,1.80
2019-05-30T02:37:54.973Z,1.70
2019-05-30T02:40:45.104Z,1.80
2019-05-30T02:43:36.276Z,2.23
2019-05-30T02:46:26.584Z,2.17
2019-05-30T02:49:16.763Z,1.80
2019-05-30T02:52:08.558Z,1.80
2019-05-30T02:54:58.939Z,1.80
2019-05-30T02:57:49.177Z,1.90
2019-05-30T03:00:39.421Z,1.97
2019-05-30T03:03:29.805Z,2.00
2019-05-30T03:06:20.214Z,2.00
2019-05-30T03:09:12.951Z,2.17
2019-05-30T03:12:04.168Z,2.03
2019-05-30T03:14:55.792Z,2.10
2019-05-30T03:17:46.155Z,2.00
2019-05-30T03:20:36.439Z,2.10
2019-05-30T03:23:27.121Z,1.97
2019-05-30T03:26:17.471Z,2.07
2019-05-30T03:29:09.502Z,1.90
2019-05-30T03:32:33.485Z,1.80
2019-05-30T03:34:51.490Z,2.00
2019-05-30T03:37:41.956Z,2.30
2019-05-30T03:40:32.239Z,1.97
2019-05-30T03:43:23.598Z,2.10
2019-05-30T03:46:17.626Z,1.90
2019-05-30T03:49:09.123Z,2.17
2019-05-30T03:52:00.273Z,1.90
2019-05-30T03:54:51.174Z,2.30
2019-05-30T03:57:46.872Z,1.90
2019-05-30T04:00:42.249Z,2.00
2019-05-30T04:03:42.251Z,2.05
2019-05-30T04:06:34.149Z,1.80
2019-05-30T04:09:25.810Z,1.87
2019-05-30T04:12:42.489Z,1.75
2019-05-30T04:15:33.743Z,1.70
2019-05-30T04:18:24.697Z,2.12
2019-05-30T04:21:18.513Z,1.90
2019-05-30T04:24:09.730Z,1.90
2019-05-30T04:27:01.340Z,1.70
2019-05-30T04:29:52.014Z,1.60
2019-05-30T04:32:42.859Z,1.72
2019-05-30T04:35:33.695Z,1.45
2019-05-30T04:38:24.562Z,1.70
2019-05-30T04:41:18.701Z,1.75
2019-05-30T04:44:09.838Z,1.80
2019-05-30T04:47:00.806Z,1.50
2019-05-30T04:49:51.586Z,1.90
2019-05-30T04:52:42.107Z,1.93
2019-05-30T04:55:32.732Z,1.70
2019-05-30T04:58:24.401Z,1.87
2019-05-30T05:01:17.717Z,1.80
2019-05-30T05:04:08.270Z,1.60
2019-05-30T05:06:58.839Z,1.80
2019-05-30T05:09:49.603Z,1.67
2019-05-30T05:12:40.173Z,1.50
2019-05-30T05:15:30.755Z,1.70
2019-05-30T05:18:21.226Z,1.50
2019-05-30T05:21:12.722Z,1.70
2019-05-30T05:24:03.380Z,1.50
2019-05-30T05:26:53.685Z,1.60
2019-05-30T05:29:44.225Z,1.70
2019-05-30T05:32:34.837Z,1.70
2019-05-30T05:35:25.331Z,1.83
2019-05-30T05:38:16.237Z,1.60
2019-05-30T05:41:06.825Z,1.53
2019-05-30T05:43:57.397Z,1.70
2019-05-30T05:46:47.827Z,1.50
2019-05-30T05:49:38.475Z,1.70
2019-05-30T05:52:29.315Z,1.60
2019-05-30T05:55:20.887Z,1.70
2019-05-30T05:58:11.282Z,1.67
2019-05-30T06:01:01.768Z,1.73
2019-05-30T06:03:52.044Z,1.47
2019-05-30T06:06:42.627Z,1.60
2019-05-30T06:09:32.894Z,1.70
2019-05-30T06:12:24.255Z,1.40
2019-05-30T06:15:14.534Z,1.50
2019-05-30T06:18:04.827Z,1.80
2019-05-30T06:20:55.297Z,1.70
2019-05-30T06:23:46.220Z,1.70
2019-05-30T06:26:37.092Z,1.80
2019-05-30T06:29:28.411Z,1.60
2019-05-30T06:32:20.930Z,1.70
2019-05-30T06:35:12.463Z,1.47
2019-05-30T06:38:02.874Z,1.50
2019-05-30T06:40:53.435Z,1.60
2019-05-30T06:43:43.849Z,1.87
2019-05-30T06:46:34.356Z,1.63
2019-05-30T06:49:24.869Z,1.67
2019-05-30T06:52:15.478Z,1.63
2019-05-30T06:55:06.353Z,1.33
2019-05-30T06:57:57.040Z,1.70
2019-05-30T07:00:47.604Z,1.67
2019-05-30T07:03:38.204Z,1.70
2019-05-30T07:06:29.518Z,1.50
2019-05-30T07:09:20.673Z,1.60
2019-05-30T07:12:12.111Z,1.60
2019-05-30T07:15:02.985Z,1.83
2019-05-30T07:17:53.655Z,1.47
2019-05-30T07:20:44.269Z,1.60
2019-05-30T07:23:34.697Z,1.60
2019-05-30T07:26:26.064Z,1.73
2019-05-30T07:29:16.614Z,1.50
2019-05-30T07:32:07.541Z,1.90
2019-05-30T07:35:06.856Z,1.60
2019-05-30T07:37:49.824Z,1.57
2019-05-30T07:40:40.358Z,1.70
2019-05-30T07:43:32.304Z,1.30
2019-05-30T07:46:23.195Z,1.40
2019-05-30T07:49:13.899Z,1.70
2019-05-30T07:52:04.213Z,1.47
2019-05-30T07:54:54.612Z,1.50
2019-05-30T07:57:44.958Z,1.70
2019-05-30T08:00:35.726Z,1.67
2019-05-30T08:03:26.491Z,1.60
2019-05-30T08:06:16.803Z,1.60
2019-05-30T08:09:08.076Z,1.50
2019-05-30T08:11:59.191Z,1.90
2019-05-30T08:14:49.717Z,1.70
2019-05-30T08:17:44.096Z,1.90
2019-05-30T08:20:33.830Z,1.60
2019-05-30T08:23:24.657Z,1.95
2019-05-30T08:26:18.212Z,1.90
2019-05-30T08:29:07.606Z,1.70
2019-05-30T08:31:58.382Z,2.10
2019-05-30T08:34:49.239Z,2.10
2019-05-30T08:37:39.990Z,1.90
2019-05-30T08:40:31.162Z,2.10
2019-05-30T08:43:21.773Z,2.12
2019-05-30T08:46:12.765Z,2.17
2019-05-30T08:49:03.688Z,1.90
2019-05-30T08:51:54.597Z,1.82
2019-05-30T08:54:45.559Z,2.17
2019-05-30T08:57:36.678Z,1.70
2019-05-30T09:00:28.286Z,2.10
2019-05-30T09:03:18.814Z,1.80
2019-05-30T09:06:09.567Z,1.90
2019-05-30T09:09:00.526Z,1.90
2019-05-30T09:11:51.451Z,2.00
2019-05-30T09:14:42.853Z,2.08
2019-05-30T09:17:33.521Z,1.92
2019-05-30T09:20:24.444Z,1.98
2019-05-30T09:23:14.962Z,1.90
2019-05-30T09:26:06.091Z,1.90
2019-05-30T09:28:56.944Z,2.00
2019-05-30T09:31:48.713Z,2.20
2019-05-30T09:34:41.233Z,2.00
2019-05-30T09:37:32.031Z,1.95
2019-05-30T09:40:22.815Z,2.30
2019-05-30T09:43:13.831Z,2.33
2019-05-30T09:46:04.588Z,2.10
2019-05-30T09:48:55.568Z,2.52
2019-05-30T09:51:47.015Z,1.92
2019-05-30T09:54:39.215Z,2.40
2019-05-30T09:57:30.048Z,2.30
2019-05-30T10:00:20.713Z,2.30
2019-05-30T10:03:11.453Z,2.37
2019-05-30T10:06:02.300Z,2.37
2019-05-30T10:08:53.169Z,2.20
2019-05-30T10:11:44.444Z,2.45
2019-05-30T10:14:36.564Z,2.30
2019-05-30T10:17:27.436Z,2.40
2019-05-30T10:20:19.309Z,2.40
2019-05-30T10:23:10.268Z,2.10
2019-05-30T10:26:00.852Z,2.35
2019-05-30T10:28:51.713Z,2.40
2019-05-30T10:31:42.233Z,2.37
2019-05-30T10:34:32.956Z,2.52
2019-05-30T10:37:23.566Z,2.30
2019-05-30T10:40:15.613Z,2.02
2019-05-30T10:43:08.511Z,2.20
2019-05-30T10:45:59.208Z,2.08
2019-05-30T10:48:50.880Z,2.30
2019-05-30T10:51:42.096Z,2.30
2019-05-30T10:54:32.987Z,2.58
2019-05-30T10:57:24.020Z,2.30
2019-05-30T11:00:16.314Z,2.30
2019-05-30T11:03:07.323Z,2.30
2019-05-30T11:06:25.623Z,2.55
2019-05-30T11:09:16.606Z,2.52
2019-05-30T11:12:07.405Z,2.70
2019-05-30T11:14:58.209Z,2.47
2019-05-30T11:17:51.562Z,2.90
2019-05-30T11:20:41.335Z,2.87
2019-05-30T11:23:32.551Z,2.85
2019-05-30T11:26:23.463Z,2.75
2019-05-30T11:29:14.370Z,3.27
2019-05-30T11:32:05.291Z,3.47
2019-05-30T11:34:57.429Z,2.80
2019-05-30T11:37:51.049Z,3.00
2019-05-30T11:40:42.082Z,3.10
2019-05-30T11:43:32.779Z,3.30
2019-05-30T11:46:23.803Z,3.80
2019-05-30T11:49:14.918Z,3.75
2019-05-30T11:52:05.580Z,3.75
2019-05-30T11:54:58.084Z,4.58
2019-05-30T11:57:50.002Z,4.10
2019-05-30T12:00:40.841Z,4.17
2019-05-30T12:03:31.877Z,4.62
2019-05-30T12:06:22.685Z,4.30
2019-05-30T12:09:14.632Z,4.33
2019-05-30T12:12:05.566Z,4.72
2019-05-30T12:14:57.362Z,4.33
2019-05-30T12:17:48.140Z,4.50
2019-05-30T12:20:38.975Z,4.33
2019-05-30T12:23:29.803Z,4.00
2019-05-30T12:26:21.603Z,4.42
2019-05-30T12:29:12.696Z,4.60
2019-05-30T12:32:03.566Z,4.30
2019-05-30T12:34:54.392Z,4.70
2019-05-30T12:37:55.005Z,5.12
2019-05-30T12:40:38.116Z,5.33
2019-05-30T12:43:29.999Z,4.67
2019-05-30T12:46:21.664Z,4.72
2019-05-30T12:49:12.442Z,5.20
2019-05-30T12:52:03.368Z,4.85
2019-05-30T12:54:54.473Z,4.72
2019-05-30T12:57:45.414Z,5.17
2019-05-30T13:00:36.820Z,5.12
2019-05-30T13:03:27.753Z,5.10
2019-05-30T13:06:18.380Z,5.42
2019-05-30T13:09:09.410Z,5.70
2019-05-30T13:12:00.556Z,5.40
2019-05-30T13:14:51.654Z,5.40
2019-05-30T13:17:42.500Z,4.97
2019-05-30T13:20:33.541Z,5.50
2019-05-30T13:23:24.068Z,5.97
2019-05-30T13:26:14.949Z,5.67
2019-05-30T13:29:06.545Z,6.00
2019-05-30T13:31:58.431Z,5.22
2019-05-30T13:34:50.196Z,5.00
2019-05-30T13:37:42.132Z,5.47
2019-05-30T13:40:32.949Z,5.40
2019-05-30T13:43:24.133Z,5.12
2019-05-30T13:46:14.701Z,4.75
2019-05-30T13:49:06.643Z,4.45
2019-05-30T13:51:58.927Z,4.33
2019-05-30T13:54:49.889Z,4.20
2019-05-30T13:57:40.670Z,4.17
2019-05-30T14:00:31.394Z,4.87
2019-05-30T14:03:22.238Z,4.70
2019-05-30T14:06:13.488Z,5.10
2019-05-30T14:09:04.862Z,4.60
2019-05-30T14:11:56.166Z,4.40
2019-05-30T14:14:48.197Z,4.25
2019-05-30T14:17:40.033Z,4.28
2019-05-30T14:20:30.843Z,4.25
2019-05-30T14:23:21.743Z,4.03
2019-05-30T14:26:12.566Z,4.42
2019-05-30T14:29:03.944Z,4.40
2019-05-30T14:31:54.690Z,4.17
2019-05-30T14:34:45.552Z,4.25
2019-05-30T14:37:36.345Z,4.17
2019-05-30T14:40:28.019Z,4.45
2019-05-30T14:43:18.844Z,4.87
2019-05-30T14:46:10.329Z,4.33
2019-05-30T14:49:00.891Z,4.60
2019-05-30T14:51:51.924Z,4.47
2019-05-30T14:54:42.960Z,4.40
2019-05-30T14:57:34.156Z,5.05
2019-05-30T15:00:24.885Z,4.28
2019-05-30T15:03:16.077Z,4.20
2019-05-30T15:06:09.195Z,4.10
2019-05-30T15:09:14.440Z,4.55
2019-05-30T15:11:52.630Z,4.28
2019-05-30T15:14:43.411Z,3.67
2019-05-30T15:17:34.412Z,4.17
2019-05-30T15:20:25.463Z,3.67
2019-05-30T15:23:16.298Z,3.75
2019-05-30T15:26:07.899Z,3.72
2019-05-30T15:28:58.753Z,3.80
2019-05-30T15:31:49.523Z,4.10
2019-05-30T15:34:40.413Z,4.00
2019-05-30T15:37:31.086Z,3.90
2019-05-30T15:40:22.369Z,4.10
2019-05-30T15:43:13.419Z,3.92
2019-05-30T15:46:03.961Z,3.83
2019-05-30T15:48:54.603Z,3.52
2019-05-30T15:51:45.424Z,3.52
2019-05-30T15:54:36.326Z,4.05
2019-05-30T15:57:27.130Z,3.65
2019-05-30T16:00:19.771Z,3.60
2019-05-30T16:03:10.573Z,3.50
2019-05-30T16:06:01.563Z,3.65
2019-05-30T16:08:52.625Z,3.30
2019-05-30T16:11:44.835Z,3.20
2019-05-30T16:14:35.756Z,3.05
2019-05-30T16:17:26.669Z,3.08
2019-05-30T16:20:18.003Z,2.90
2019-05-30T16:23:08.561Z,2.85
2019-05-30T16:25:59.083Z,3.65
2019-05-30T16:28:49.894Z,3.10
2019-05-30T16:31:40.547Z,3.10
2019-05-30T16:34:32.832Z,3.10
2019-05-30T16:37:23.735Z,3.10
2019-05-30T16:40:16.243Z,3.52
2019-05-30T16:43:08.091Z,3.00
2019-05-30T16:45:58.818Z,3.20
2019-05-30T16:48:49.561Z,2.90
2019-05-30T16:51:40.670Z,2.95
2019-05-30T16:54:31.535Z,2.75
2019-05-30T16:57:22.735Z,2.67
2019-05-30T17:00:15.707Z,2.42
2019-05-30T17:03:06.803Z,2.30
2019-05-30T17:05:57.591Z,2.22
2019-05-30T17:08:48.334Z,2.40
2019-05-30T17:11:39.300Z,2.42
2019-05-30T17:14:30.317Z,3.47
2019-05-30T17:17:22.063Z,7.20
2019-05-30T17:20:13.312Z,8.20
2019-05-30T17:23:03.994Z,11.22
2019-05-30T17:25:55.053Z,3.58
2019-05-30T17:28:45.697Z,3.50
2019-05-30T17:31:36.606Z,3.50
2019-05-30T17:34:28.194Z,3.98
2019-05-30T17:37:20.197Z,3.70
2019-05-30T17:40:11.015Z,3.30
2019-05-30T17:43:01.607Z,4.47
2019-05-30T17:45:52.364Z,3.33
2019-05-30T17:48:43.309Z,4.10
2019-05-30T17:51:34.185Z,4.35
2019-05-30T17:54:25.983Z,10.58
2019-05-30T17:57:16.936Z,6.33
2019-05-30T18:00:08.064Z,6.70
2019-05-30T18:02:58.740Z,15.30
2019-05-30T18:05:49.564Z,4.85
2019-05-30T18:08:40.432Z,8.93
2019-05-30T18:11:31.526Z,4.85
2019-05-30T18:14:23.076Z,4.20
2019-05-30T18:17:13.902Z,3.85
2019-05-30T18:20:05.862Z,7.15
2019-05-30T18:22:56.997Z,5.05
2019-05-30T18:25:47.781Z,3.50
2019-05-30T18:28:38.612Z,2.98
2019-05-30T18:31:30.157Z,3.08
2019-05-30T18:34:22.232Z,3.20
2019-05-30T18:37:13.268Z,3.35
2019-05-30T18:40:05.567Z,2.90
2019-05-30T18:42:56.344Z,3.20
2019-05-30T18:45:47.150Z,2.95
2019-05-30T18:48:37.885Z,3.00
2019-05-30T18:51:32.580Z,2.92
2019-05-30T18:54:24.392Z,3.10
2019-05-30T18:57:15.299Z,2.92
2019-05-30T19:00:06.757Z,3.35
2019-05-30T19:02:56.808Z,2.80
2019-05-30T19:05:48.533Z,2.77
2019-05-30T19:08:38.725Z,2.77
2019-05-30T19:11:33.401Z,2.80
2019-05-30T19:14:20.813Z,2.80
2019-05-30T19:17:11.475Z,2.80
2019-05-30T19:20:02.401Z,2.80
2019-05-30T19:22:53.277Z,2.62
2019-05-30T19:25:44.248Z,2.22
2019-05-30T19:28:35.031Z,2.70
2019-05-30T19:31:26.473Z,2.72
2019-05-30T19:34:16.528Z,2.50
2019-05-30T19:37:07.691Z,2.80
2019-05-30T19:39:58.514Z,2.90
2019-05-30T19:42:49.182Z,2.95
2019-05-30T19:45:40.044Z,2.83
2019-05-30T19:48:32.318Z,3.00
2019-05-30T19:51:22.914Z,2.80
2019-05-30T19:54:13.811Z,2.90
2019-05-30T19:57:04.708Z,2.52
2019-05-30T19:59:57.328Z,3.80
2019-05-30T20:02:47.292Z,3.10
2019-05-30T20:05:38.879Z,2.90
2019-05-30T20:08:44.753Z,2.90
2019-05-30T20:11:20.816Z,3.20
2019-05-30T20:14:11.663Z,2.75
2019-05-30T20:17:01.889Z,3.08
2019-05-30T20:19:52.494Z,3.03
2019-05-30T20:22:43.713Z,3.22
2019-05-30T20:25:34.532Z,3.10
2019-05-30T20:28:24.483Z,2.92
2019-05-30T20:31:14.769Z,3.10
2019-05-30T20:34:06.816Z,3.00
2019-05-30T20:36:56.962Z,2.95
2019-05-30T20:39:47.310Z,3.27
2019-05-30T20:42:37.513Z,3.10
2019-05-30T20:45:28.794Z,3.03
2019-05-30T20:48:19.006Z,3.00
2019-05-30T20:51:20.861Z,2.93
2019-05-30T20:54:01.344Z,2.75
2019-05-30T20:56:52.432Z,3.42
2019-05-30T20:59:42.916Z,3.65
2019-05-30T21:02:34.594Z,3.37
2019-05-30T21:05:25.020Z,3.80
2019-05-30T21:08:15.057Z,3.47
2019-05-30T21:11:05.257Z,3.60
2019-05-30T21:13:55.492Z,4.07
2019-05-30T21:16:45.990Z,4.23
2019-05-30T21:19:36.338Z,3.47
2019-05-30T21:22:27.501Z,3.70
2019-05-30T21:25:17.653Z,3.80
2019-05-30T21:28:08.568Z,3.40
2019-05-30T21:30:59.128Z,3.47
2019-05-30T21:33:49.665Z,3.60
2019-05-30T21:36:40.320Z,3.27
2019-05-30T21:39:30.994Z,3.10
2019-05-30T21:42:21.046Z,3.30
2019-05-30T21:45:11.268Z,3.37
2019-05-30T21:48:01.568Z,3.60
2019-05-30T21:50:51.753Z,3.00
2019-05-30T21:53:42.056Z,3.57
2019-05-30T21:56:32.477Z,3.70
2019-05-30T21:59:22.867Z,4.00
2019-05-30T22:02:13.054Z,4.10
2019-05-30T22:05:03.199Z,4.00
2019-05-30T22:07:53.164Z,4.40
2019-05-30T22:10:43.377Z,3.60
2019-05-30T22:13:33.640Z,3.53
2019-05-30T22:16:24.038Z,3.40
2019-05-30T22:19:15.391Z,3.47
2019-05-30T22:22:05.695Z,3.63
2019-05-30T22:24:56.102Z,3.60
2019-05-30T22:27:46.466Z,3.93
2019-05-30T22:30:37.773Z,3.57
2019-05-30T22:33:28.308Z,3.80
2019-05-30T22:36:18.693Z,3.53
2019-05-30T22:39:09.165Z,3.50
2019-05-30T22:41:59.054Z,3.30
2019-05-30T22:44:50.218Z,3.20
2019-05-30T22:47:40.485Z,2.93
2019-05-30T22:50:30.760Z,2.93
2019-05-30T22:53:20.966Z,2.60
2019-05-30T22:56:11.224Z,2.60
2019-05-30T22:59:01.234Z,2.60
2019-05-30T23:01:52.315Z,2.60
2019-05-30T23:04:43.732Z,3.13
2019-05-30T23:07:34.132Z,3.20
2019-05-30T23:10:24.451Z,3.10
2019-05-30T23:13:14.630Z,3.00
2019-05-30T23:16:05.000Z,2.80
2019-05-30T23:18:55.248Z,3.17
2019-05-30T23:21:46.711Z,2.73
2019-05-30T23:24:36.908Z,2.70
2019-05-30T23:27:27.176Z,3.03
2019-05-30T23:30:17.447Z,2.87
2019-05-30T23:33:07.744Z,3.17
2019-05-30T23:35:58.580Z,2.90
2019-05-30T23:38:49.038Z,3.33
2019-05-30T23:41:39.120Z,3.10
2019-05-30T23:44:29.009Z,3.50
2019-05-30T23:47:19.390Z,3.20
2019-05-30T23:50:10.342Z,2.93
2019-05-30T23:53:00.592Z,2.70
2019-05-30T23:55:50.685Z,3.40
2019-05-30T23:58:41.016Z,2.90
